AirNav   Air Wisconsin Up To $57,000 Bonus
 
 1291 users online  

1MI6 Trudeau Airport
Milan, Michigan, USA

GOING TO MILAN?


FAA INFORMATION EFFECTIVE 09 SEPTEMBER 2021

Location

FAA Identifier: 1MI6
Lat/Long: 42-05-16.5300N 083-45-55.8700W
42-05.275500N 083-45.931167W
42.0879250,-83.7655194
(estimated)
Elevation: 730 ft. / 223 m
From city: 4 miles W of MILAN, MI
Time zone: UTC -4 (UTC -5 during Standard Time)
Zip code: 48160

Airport Operations

Airport use: Private use. Permission required prior to landing
Activation date: 07/2011
Control tower: no
ARTCC: CLEVELAND CENTER
FSS: LANSING FLIGHT SERVICE STATION
Attendance: UNATNDD
Segmented circle: no

Airport Communications

WX ASOS at ARB (8 nm N): PHONE 734-668-7173
WX ASOS at YIP (14 nm NE): PHONE 734-961-6843
WX AWOS-3 at TTF (17 nm SE): 119.075 (734-384-0259)
WX ASOS at ADG (19 nm SW): 118.375 (517-265-9089)
WX ASOS at DTW (20 nm E): PHONE 734-955-5015

Nearby radio navigation aids

VOR radial/distance  VOR name  Freq  Var
CRLr283/13.9CARLETON VOR/DME115.7003W
DXOr253/19.3DETROIT VOR/DME113.4006W
SVMr205/20.7SALEM VORTAC114.3003W

 
NDB name  Hdg/Dist  Freq  Var  ID
TECUMSEH065/6.323906WTCU - -.-. ..-
ADRIAN053/19.127806WADG .- -.. --.
GROSSE ILE275/27.341907WRYS .-. -.-- ...

Airport Services

Runway Information

Runway 9/27

Dimensions: 1800 x 100 ft. / 549 x 30 m
Surface: turf
RUNWAY 9  RUNWAY 27
Traffic pattern: leftleft

Airport Ownership and Management from official FAA records

Ownership: Privately-owned
Owner: JOHN AND SUSAN TRUDEAU
13760 RIDGE RD
MILAN, MI 48160
Phone 734-347-4512
Manager: JOHN TRUDEAU
13760 RIDGE RD
MILAN, MI 48160
Phone 734-347-4512

Airport Operational Statistics

Aircraft based on the field: 1
Single engine airplanes: 1
    

Additional Remarks

FOR CD CTC DETROIT APCH AT 800-499-8181.

Instrument Procedures

There are no published instrument procedures at 1MI6.

Some nearby airports with instrument procedures:

KARB - Ann Arbor Municipal Airport (8 nm N)
KYIP - Willow Run Airport (14 nm NE)
KTTF - Custer Airport (17 nm SE)
KADG - Lenawee County Airport (19 nm SW)
KDTW - Detroit Metro Wayne County Airport (20 nm E)
 
Loc | Ops | Rwys | IFR | FBO | Links
Com | Nav | Svcs | Stats | Notes
Aerial photo
No photo
 
Airport distance calculator
Flying to Trudeau Airport? Find the distance to fly.

From to 1MI6

Sunrise and sunset
Times for 16-Sep-2021
 Local
(UTC-4)
 Zulu
(UTC)
Morning civil twilight06:4910:49
Sunrise07:1711:17
Sunset19:4323:43
Evening civil twilight20:1100:11

Current date and time
Zulu (UTC)  16-Sep-2021 21:46:07
Local (UTC-4)  16-Sep-2021 17:46:07
 
METAR
KARB 
8nm N 
734-668-7173
162053Z 14010KT 10SM FEW050 24/12 A3012 RMK AO2 SLP197 T02440117 56013 $
KYIP 
14nm NE 
162053Z 15008KT 10SM CLR 28/11 A3013 RMK AO2 SLP196 T02780111 56013
KTTF 
18nm SE 
162135Z AUTO 11005KT 10SM CLR 23/14 A3012 RMK AO2 T02320139
KADG 
19nm SW 
162053Z AUTO 09008KT 10SM CLR 24/13 A3012 RMK AO2 SLP199 T02440133 56013
TAF
KYIP 
14nm NE 
161120Z 1612/1712 07005KT P6SM SCT025 FM161500 11007KT P6SM BKN040 FM162000 13006KT P6SM SCT050 FM170000 09003KT P6SM SKC
NOTAMs
Click for the latest NOTAMs
NOTAMs are issued by the DoD/FAA and will open in a separate window not controlled by AirNav.

 

 
 

Would you like to see your business listed on this page?

 If your business provides an interesting product or service to pilots, flight crews, aircraft, or users of the Trudeau Airport, you should consider listing it here.  To start the listing process, click on the button below
 
Add a business
 

Other Pages about Trudeau Airport

Update a link
 
Copyright © AirNav, LLC. All rights reserved. Privacy Policy  Contact